AMU331 ZGNN-VMMC
Flight info
| Callsign | AMU331 |
|---|---|
| Flight time | 0h 56m |
| Altitude | 26600 |
| Route | BHY R339 LH R200 BIGRO |
| Aircraft | A321/M-SDE3FGHIRWY/LB1 |
Departure
| Time | 2026-05-05 13:37 |
|---|---|
| Airport | Nanning Wuxu International Airport (ZGNN) |
Arrival
| Time | 2026-05-05 14:34 |
|---|---|
| Airport | Macau International Airport (VMMC) |
| Time | Latitude | Longitude | Altitude | Speed | Heading |
|---|---|---|---|---|---|
| 2026-05-05 13:12 | 22.60408 | 108.17813 | 419 ft | 0 kts | 61° |
| 2026-05-05 13:23 | 22.60405 | 108.17806 | 419 ft | 2 kts | 59° |
| 2026-05-05 13:24 | 22.60394 | 108.17788 | 409 ft | 3 kts | 47° |
| 2026-05-05 13:24 | 22.60379 | 108.17774 | 409 ft | 3 kts | 28° |
| 2026-05-05 13:24 | 22.60362 | 108.17767 | 412 ft | 3 kts | 355° |
| 2026-05-05 13:24 | 22.60348 | 108.17771 | 412 ft | 1 kts | 318° |
| 2026-05-05 13:25 | 22.60346 | 108.17773 | 413 ft | 0 kts | 316° |
| 2026-05-05 13:27 | 22.60341 | 108.17778 | 410 ft | 1 kts | 316° |
| 2026-05-05 13:27 | 22.60340 | 108.17779 | 410 ft | 0 kts | 316° |
| 2026-05-05 13:30 | 22.60352 | 108.17767 | 412 ft | 5 kts | 316° |
| 2026-05-05 13:30 | 22.60375 | 108.17743 | 413 ft | 4 kts | 316° |
| 2026-05-05 13:31 | 22.60390 | 108.17728 | 420 ft | 2 kts | 317° |
| 2026-05-05 13:31 | 22.60398 | 108.17720 | 417 ft | 1 kts | 317° |
| 2026-05-05 13:31 | 22.60414 | 108.17704 | 417 ft | 6 kts | 317° |
| 2026-05-05 13:31 | 22.60454 | 108.17665 | 421 ft | 7 kts | 317° |
| 2026-05-05 13:32 | 22.60489 | 108.17629 | 421 ft | 7 kts | 316° |
| 2026-05-05 13:32 | 22.60544 | 108.17574 | 424 ft | 13 kts | 317° |
| 2026-05-05 13:32 | 22.60576 | 108.17498 | 429 ft | 10 kts | 246° |
| 2026-05-05 13:32 | 22.60526 | 108.17438 | 417 ft | 11 kts | 226° |
| 2026-05-05 13:33 | 22.60468 | 108.17371 | 422 ft | 13 kts | 226° |
| 2026-05-05 13:33 | 22.60402 | 108.17294 | 426 ft | 15 kts | 227° |
| 2026-05-05 13:33 | 22.60333 | 108.17216 | 429 ft | 15 kts | 226° |
| 2026-05-05 13:33 | 22.60256 | 108.17128 | 426 ft | 17 kts | 226° |
| 2026-05-05 13:34 | 22.60170 | 108.17028 | 421 ft | 19 kts | 226° |
| 2026-05-05 13:34 | 22.60110 | 108.16959 | 424 ft | 20 kts | 226° |
| 2026-05-05 13:34 | 22.60009 | 108.16845 | 414 ft | 22 kts | 226° |
| 2026-05-05 13:34 | 22.59869 | 108.16683 | 422 ft | 22 kts | 226° |
| 2026-05-05 13:35 | 22.59782 | 108.16582 | 419 ft | 9 kts | 228° |
| 2026-05-05 13:35 | 22.59762 | 108.16528 | 428 ft | 7 kts | 295° |
| 2026-05-05 13:35 | 22.59795 | 108.16495 | 421 ft | 6 kts | 320° |
| 2026-05-05 13:35 | 22.59828 | 108.16463 | 425 ft | 7 kts | 317° |
| 2026-05-05 13:36 | 22.59856 | 108.16440 | 429 ft | 8 kts | 341° |
| 2026-05-05 13:36 | 22.59929 | 108.16493 | 423 ft | 11 kts | 47° |
| 2026-05-05 13:36 | 22.59999 | 108.16574 | 424 ft | 22 kts | 46° |
| 2026-05-05 13:36 | 22.60216 | 108.16823 | 426 ft | 81 kts | 47° |
| 2026-05-05 13:37 | 22.60541 | 108.17198 | 431 ft | 125 kts | 47° |
| 2026-05-05 13:37 | 22.61263 | 108.18031 | 473 ft | 173 kts | 49° |
| 2026-05-05 13:37 | 22.62327 | 108.19283 | 1359 ft | 169 kts | 52° |
| 2026-05-05 13:37 | 22.63132 | 108.20208 | 2066 ft | 168 kts | 52° |
| 2026-05-05 13:38 | 22.63939 | 108.21123 | 2629 ft | 169 kts | 52° |
| 2026-05-05 13:38 | 22.64759 | 108.22043 | 3151 ft | 169 kts | 51° |
| 2026-05-05 13:38 | 22.65295 | 108.22654 | 3501 ft | 169 kts | 51° |
| 2026-05-05 13:38 | 22.66438 | 108.23976 | 3917 ft | 194 kts | 49° |
| 2026-05-05 13:39 | 22.67073 | 108.24706 | 4077 ft | 207 kts | 49° |
| 2026-05-05 13:39 | 22.68107 | 108.25892 | 4348 ft | 226 kts | 48° |
| 2026-05-05 13:39 | 22.69615 | 108.27625 | 4599 ft | 254 kts | 47° |
| 2026-05-05 13:39 | 22.70851 | 108.29044 | 5173 ft | 261 kts | 46° |
| 2026-05-05 13:40 | 22.72108 | 108.30486 | 5880 ft | 265 kts | 46° |
| 2026-05-05 13:40 | 22.72947 | 108.31451 | 6367 ft | 267 kts | 46° |
| 2026-05-05 13:40 | 22.74663 | 108.33426 | 7302 ft | 271 kts | 46° |
| 2026-05-05 13:40 | 22.75520 | 108.34412 | 7774 ft | 272 kts | 46° |
| 2026-05-05 13:41 | 22.76824 | 108.35910 | 8495 ft | 274 kts | 46° |
| 2026-05-05 13:41 | 22.78132 | 108.37427 | 9206 ft | 277 kts | 48° |
| 2026-05-05 13:41 | 22.79329 | 108.39865 | 10067 ft | 282 kts | 76° |
| 2026-05-05 13:41 | 22.79498 | 108.41296 | 10451 ft | 285 kts | 91° |
| 2026-05-05 13:42 | 22.79138 | 108.43407 | 10993 ft | 289 kts | 114° |
| 2026-05-05 13:42 | 22.78257 | 108.45340 | 11532 ft | 292 kts | 119° |
| 2026-05-05 13:42 | 22.76995 | 108.47976 | 12299 ft | 297 kts | 119° |
| 2026-05-05 13:42 | 22.76363 | 108.49299 | 12684 ft | 299 kts | 120° |
| 2026-05-05 13:43 | 22.75168 | 108.51149 | 13248 ft | 301 kts | 135° |
| 2026-05-05 13:43 | 22.73567 | 108.52649 | 13523 ft | 313 kts | 151° |
| 2026-05-05 13:43 | 22.70978 | 108.54281 | 13705 ft | 338 kts | 153° |
| 2026-05-05 13:43 | 22.68884 | 108.55587 | 13838 ft | 357 kts | 153° |
| 2026-05-05 13:44 | 22.67406 | 108.56513 | 13908 ft | 369 kts | 153° |
| 2026-05-05 13:44 | 22.65167 | 108.57923 | 14014 ft | 386 kts | 152° |
| 2026-05-05 13:44 | 22.62805 | 108.59420 | 14121 ft | 402 kts | 152° |
| 2026-05-05 13:44 | 22.60358 | 108.60989 | 14237 ft | 417 kts | 152° |
| 2026-05-05 13:45 | 22.57822 | 108.62634 | 14350 ft | 431 kts | 151° |
| 2026-05-05 13:45 | 22.55226 | 108.64326 | 14665 ft | 439 kts | 151° |
| 2026-05-05 13:45 | 22.52602 | 108.66038 | 15082 ft | 443 kts | 151° |
| 2026-05-05 13:45 | 22.49954 | 108.67761 | 15514 ft | 446 kts | 151° |
| 2026-05-05 13:46 | 22.46411 | 108.70054 | 16063 ft | 450 kts | 151° |
| 2026-05-05 13:46 | 22.44592 | 108.71227 | 16339 ft | 452 kts | 151° |
| 2026-05-05 13:46 | 22.41883 | 108.72971 | 16761 ft | 455 kts | 151° |
| 2026-05-05 13:46 | 22.39194 | 108.74703 | 17140 ft | 457 kts | 151° |
| 2026-05-05 13:47 | 22.36452 | 108.76469 | 17532 ft | 460 kts | 151° |
| 2026-05-05 13:47 | 22.33696 | 108.78244 | 17922 ft | 463 kts | 151° |
| 2026-05-05 13:47 | 22.30922 | 108.80028 | 18256 ft | 465 kts | 151° |
| 2026-05-05 13:47 | 22.28140 | 108.81819 | 18565 ft | 467 kts | 151° |
| 2026-05-05 13:48 | 22.25342 | 108.83618 | 18886 ft | 469 kts | 151° |
| 2026-05-05 13:48 | 22.22540 | 108.85418 | 19186 ft | 471 kts | 151° |
| 2026-05-05 13:48 | 22.19716 | 108.87229 | 19473 ft | 473 kts | 151° |
| 2026-05-05 13:48 | 22.16879 | 108.89046 | 19761 ft | 475 kts | 151° |
| 2026-05-05 13:49 | 22.14067 | 108.90848 | 20028 ft | 478 kts | 151° |
| 2026-05-05 13:49 | 22.11206 | 108.92685 | 20293 ft | 480 kts | 151° |
| 2026-05-05 13:49 | 22.08331 | 108.94532 | 20575 ft | 482 kts | 151° |
| 2026-05-05 13:49 | 22.05441 | 108.96387 | 20847 ft | 485 kts | 151° |
| 2026-05-05 13:50 | 22.02534 | 108.98254 | 21115 ft | 487 kts | 151° |
| 2026-05-05 13:50 | 21.99621 | 109.00120 | 21386 ft | 489 kts | 151° |
| 2026-05-05 13:50 | 21.96688 | 109.01996 | 21644 ft | 491 kts | 151° |
| 2026-05-05 13:50 | 21.93743 | 109.03880 | 21910 ft | 493 kts | 152° |
| 2026-05-05 13:51 | 21.90788 | 109.05770 | 22167 ft | 496 kts | 152° |
| 2026-05-05 13:51 | 21.87859 | 109.07655 | 22414 ft | 498 kts | 150° |
| 2026-05-05 13:51 | 21.85056 | 109.09881 | 22665 ft | 504 kts | 141° |
| 2026-05-05 13:51 | 21.82562 | 109.12549 | 22925 ft | 508 kts | 132° |
| 2026-05-05 13:52 | 21.80284 | 109.15471 | 23188 ft | 511 kts | 131° |
| 2026-05-05 13:52 | 21.77999 | 109.18412 | 23459 ft | 513 kts | 131° |
| 2026-05-05 13:52 | 21.75704 | 109.21363 | 23688 ft | 516 kts | 131° |
| 2026-05-05 13:52 | 21.73396 | 109.24326 | 23939 ft | 517 kts | 131° |
| 2026-05-05 13:53 | 21.71086 | 109.27287 | 24275 ft | 516 kts | 131° |
| 2026-05-05 13:53 | 21.68779 | 109.30238 | 24598 ft | 515 kts | 131° |
| 2026-05-05 13:53 | 21.66503 | 109.33146 | 24915 ft | 515 kts | 131° |
| 2026-05-05 13:53 | 21.64198 | 109.36089 | 25238 ft | 515 kts | 131° |
| 2026-05-05 13:54 | 21.61889 | 109.39034 | 25561 ft | 515 kts | 131° |
| 2026-05-05 13:54 | 21.59605 | 109.41995 | 25893 ft | 515 kts | 128° |
| 2026-05-05 13:54 | 21.57640 | 109.45205 | 26222 ft | 516 kts | 120° |
| 2026-05-05 13:54 | 21.55953 | 109.48613 | 26474 ft | 517 kts | 118° |
| 2026-05-05 13:55 | 21.54269 | 109.52025 | 26554 ft | 518 kts | 119° |
| 2026-05-05 13:55 | 21.52573 | 109.55444 | 26559 ft | 519 kts | 119° |
| 2026-05-05 13:55 | 21.50870 | 109.58862 | 26558 ft | 519 kts | 119° |
| 2026-05-05 13:55 | 21.49165 | 109.62277 | 26558 ft | 519 kts | 119° |
| 2026-05-05 13:56 | 21.47484 | 109.65644 | 26556 ft | 519 kts | 119° |
| 2026-05-05 13:56 | 21.45778 | 109.69061 | 26559 ft | 519 kts | 119° |
| 2026-05-05 13:56 | 21.44072 | 109.72474 | 26558 ft | 519 kts | 119° |
| 2026-05-05 13:56 | 21.42366 | 109.75888 | 26558 ft | 519 kts | 119° |
| 2026-05-05 13:57 | 21.40660 | 109.79300 | 26560 ft | 519 kts | 119° |
| 2026-05-05 13:57 | 21.38954 | 109.82706 | 26559 ft | 519 kts | 119° |
| 2026-05-05 13:57 | 21.37242 | 109.86124 | 26556 ft | 519 kts | 119° |
| 2026-05-05 13:57 | 21.35534 | 109.89533 | 26546 ft | 519 kts | 119° |
| 2026-05-05 13:58 | 21.33850 | 109.92894 | 26550 ft | 519 kts | 119° |
| 2026-05-05 13:58 | 21.32138 | 109.96306 | 26553 ft | 519 kts | 119° |
| 2026-05-05 13:58 | 21.30429 | 109.99708 | 26551 ft | 519 kts | 119° |
| 2026-05-05 13:58 | 21.28719 | 110.03117 | 26557 ft | 519 kts | 119° |
| 2026-05-05 13:59 | 21.25298 | 110.09932 | 26552 ft | 519 kts | 119° |
| 2026-05-05 13:59 | 21.23583 | 110.13339 | 26555 ft | 519 kts | 119° |
| 2026-05-05 14:00 | 21.20174 | 110.20099 | 26549 ft | 519 kts | 119° |
| 2026-05-05 14:00 | 21.18459 | 110.23502 | 26544 ft | 519 kts | 119° |
| 2026-05-05 14:00 | 21.16894 | 110.26991 | 26553 ft | 520 kts | 111° |
| 2026-05-05 14:00 | 21.15848 | 110.30692 | 26554 ft | 520 kts | 102° |
| 2026-05-05 14:01 | 21.15366 | 110.34525 | 26558 ft | 519 kts | 92° |
| 2026-05-05 14:01 | 21.15467 | 110.38385 | 26557 ft | 518 kts | 82° |
| 2026-05-05 14:01 | 21.16140 | 110.42162 | 26557 ft | 515 kts | 72° |
| 2026-05-05 14:01 | 21.17207 | 110.45805 | 26568 ft | 515 kts | 70° |
| 2026-05-05 14:02 | 21.18285 | 110.49422 | 26568 ft | 515 kts | 70° |
| 2026-05-05 14:02 | 21.19367 | 110.53076 | 26566 ft | 515 kts | 70° |
| 2026-05-05 14:02 | 21.20440 | 110.56732 | 26569 ft | 514 kts | 70° |
| 2026-05-05 14:02 | 21.21508 | 110.60384 | 26566 ft | 514 kts | 70° |
| 2026-05-05 14:03 | 21.22578 | 110.64043 | 26559 ft | 514 kts | 70° |
| 2026-05-05 14:03 | 21.23647 | 110.67701 | 26561 ft | 514 kts | 70° |
| 2026-05-05 14:03 | 21.24717 | 110.71356 | 26559 ft | 514 kts | 70° |
| 2026-05-05 14:03 | 21.25792 | 110.75017 | 26560 ft | 514 kts | 70° |
| 2026-05-05 14:04 | 21.26869 | 110.78666 | 26568 ft | 514 kts | 70° |
| 2026-05-05 14:04 | 21.27937 | 110.82272 | 26568 ft | 514 kts | 70° |
| 2026-05-05 14:04 | 21.29018 | 110.85932 | 26563 ft | 514 kts | 70° |
| 2026-05-05 14:04 | 21.30089 | 110.89586 | 26564 ft | 515 kts | 70° |
| 2026-05-05 14:05 | 21.31158 | 110.93252 | 26562 ft | 515 kts | 70° |
| 2026-05-05 14:05 | 21.32224 | 110.96917 | 26560 ft | 515 kts | 70° |
| 2026-05-05 14:05 | 21.33288 | 111.00583 | 26562 ft | 515 kts | 70° |
| 2026-05-05 14:05 | 21.34351 | 111.04249 | 26569 ft | 515 kts | 70° |
| 2026-05-05 14:06 | 21.35419 | 111.07916 | 26566 ft | 515 kts | 70° |
| 2026-05-05 14:06 | 21.36489 | 111.11581 | 26570 ft | 515 kts | 70° |
| 2026-05-05 14:06 | 21.37557 | 111.15246 | 26576 ft | 515 kts | 70° |
| 2026-05-05 14:06 | 21.38611 | 111.18870 | 26586 ft | 515 kts | 70° |
| 2026-05-05 14:07 | 21.39676 | 111.22542 | 26581 ft | 516 kts | 70° |
| 2026-05-05 14:07 | 21.40746 | 111.26215 | 26577 ft | 516 kts | 70° |
| 2026-05-05 14:07 | 21.41812 | 111.29885 | 26575 ft | 516 kts | 70° |
| 2026-05-05 14:07 | 21.42877 | 111.33562 | 26578 ft | 516 kts | 70° |
| 2026-05-05 14:08 | 21.43939 | 111.37245 | 26579 ft | 516 kts | 70° |
| 2026-05-05 14:08 | 21.45000 | 111.40922 | 26579 ft | 516 kts | 70° |
| 2026-05-05 14:08 | 21.46063 | 111.44604 | 26581 ft | 516 kts | 70° |
| 2026-05-05 14:08 | 21.47111 | 111.48235 | 26580 ft | 516 kts | 70° |
| 2026-05-05 14:09 | 21.48170 | 111.51912 | 26574 ft | 516 kts | 70° |
| 2026-05-05 14:09 | 21.49231 | 111.55597 | 26582 ft | 516 kts | 70° |
| 2026-05-05 14:09 | 21.50292 | 111.59279 | 26580 ft | 516 kts | 70° |
| 2026-05-05 14:09 | 21.51353 | 111.62965 | 26586 ft | 517 kts | 70° |
| 2026-05-05 14:10 | 21.52412 | 111.66649 | 26589 ft | 517 kts | 70° |
| 2026-05-05 14:10 | 21.53468 | 111.70336 | 26589 ft | 517 kts | 70° |
| 2026-05-05 14:10 | 21.54528 | 111.74025 | 26588 ft | 517 kts | 70° |
| 2026-05-05 14:10 | 21.55585 | 111.77708 | 26590 ft | 517 kts | 70° |
| 2026-05-05 14:11 | 21.56640 | 111.81400 | 26589 ft | 517 kts | 70° |
| 2026-05-05 14:11 | 21.57669 | 111.85097 | 26587 ft | 517 kts | 71° |
| 2026-05-05 14:11 | 21.58620 | 111.88776 | 26416 ft | 518 kts | 72° |
| 2026-05-05 14:11 | 21.59522 | 111.92528 | 26196 ft | 519 kts | 73° |
| 2026-05-05 14:12 | 21.60392 | 111.96291 | 25954 ft | 519 kts | 74° |
| 2026-05-05 14:12 | 21.61256 | 112.00060 | 25618 ft | 520 kts | 74° |
| 2026-05-05 14:12 | 21.62133 | 112.03825 | 25281 ft | 519 kts | 73° |
| 2026-05-05 14:12 | 21.63025 | 112.07583 | 24941 ft | 519 kts | 73° |
| 2026-05-05 14:13 | 21.63934 | 112.11343 | 24565 ft | 519 kts | 73° |
| 2026-05-05 14:13 | 21.64838 | 112.15043 | 24042 ft | 519 kts | 73° |
| 2026-05-05 14:13 | 21.65757 | 112.18790 | 23387 ft | 516 kts | 73° |
| 2026-05-05 14:13 | 21.66664 | 112.22499 | 22619 ft | 510 kts | 74° |
| 2026-05-05 14:14 | 21.67552 | 112.26174 | 21802 ft | 505 kts | 74° |
| 2026-05-05 14:14 | 21.68425 | 112.29812 | 20857 ft | 501 kts | 74° |
| 2026-05-05 14:14 | 21.69285 | 112.33419 | 19950 ft | 494 kts | 74° |
| 2026-05-05 14:14 | 21.70125 | 112.36956 | 19069 ft | 482 kts | 74° |
| 2026-05-05 14:15 | 21.70948 | 112.40411 | 18194 ft | 472 kts | 74° |
| 2026-05-05 14:15 | 21.71757 | 112.43788 | 17285 ft | 463 kts | 74° |
| 2026-05-05 14:15 | 21.72551 | 112.47090 | 16462 ft | 461 kts | 74° |
| 2026-05-05 14:15 | 21.73353 | 112.50419 | 15620 ft | 458 kts | 74° |
| 2026-05-05 14:16 | 21.74149 | 112.53733 | 14826 ft | 456 kts | 75° |
| 2026-05-05 14:16 | 21.74939 | 112.57032 | 14051 ft | 454 kts | 75° |
| 2026-05-05 14:16 | 21.75718 | 112.60304 | 13309 ft | 450 kts | 75° |
| 2026-05-05 14:16 | 21.76484 | 112.63532 | 12620 ft | 441 kts | 75° |
| 2026-05-05 14:17 | 21.77226 | 112.66657 | 11829 ft | 432 kts | 75° |
| 2026-05-05 14:17 | 21.77968 | 112.69784 | 11309 ft | 417 kts | 75° |
| 2026-05-05 14:17 | 21.78655 | 112.72685 | 11197 ft | 395 kts | 75° |
| 2026-05-05 14:17 | 21.79308 | 112.75446 | 11078 ft | 378 kts | 75° |
| 2026-05-05 14:18 | 21.79947 | 112.78143 | 10958 ft | 362 kts | 75° |
| 2026-05-05 14:18 | 21.80557 | 112.80713 | 10837 ft | 348 kts | 75° |
| 2026-05-05 14:18 | 21.81145 | 112.83187 | 10718 ft | 334 kts | 75° |
| 2026-05-05 14:18 | 21.81706 | 112.85553 | 10525 ft | 321 kts | 75° |
| 2026-05-05 14:19 | 21.82252 | 112.87855 | 10254 ft | 313 kts | 75° |
| 2026-05-05 14:19 | 21.82781 | 112.90086 | 10197 ft | 312 kts | 75° |
| 2026-05-05 14:19 | 21.83316 | 112.92351 | 10096 ft | 312 kts | 76° |
| 2026-05-05 14:19 | 21.83849 | 112.94618 | 9927 ft | 313 kts | 75° |
| 2026-05-05 14:20 | 21.84384 | 112.96896 | 9499 ft | 313 kts | 76° |
| 2026-05-05 14:20 | 21.84912 | 112.99150 | 9094 ft | 309 kts | 76° |
| 2026-05-05 14:20 | 21.85435 | 113.01376 | 8899 ft | 303 kts | 76° |
| 2026-05-05 14:20 | 21.85954 | 113.03572 | 8917 ft | 303 kts | 76° |
| 2026-05-05 14:21 | 21.86474 | 113.05776 | 8919 ft | 304 kts | 76° |
| 2026-05-05 14:21 | 21.86986 | 113.07953 | 8918 ft | 304 kts | 76° |
| 2026-05-05 14:21 | 21.87503 | 113.10160 | 8917 ft | 304 kts | 76° |
| 2026-05-05 14:21 | 21.88023 | 113.12367 | 8913 ft | 307 kts | 76° |
| 2026-05-05 14:22 | 21.88550 | 113.14602 | 8913 ft | 307 kts | 76° |
| 2026-05-05 14:22 | 21.89074 | 113.16828 | 8915 ft | 307 kts | 76° |
| 2026-05-05 14:22 | 21.89599 | 113.19054 | 8915 ft | 307 kts | 76° |
| 2026-05-05 14:22 | 21.90126 | 113.21292 | 8923 ft | 309 kts | 76° |
| 2026-05-05 14:23 | 21.90650 | 113.23528 | 8923 ft | 306 kts | 76° |
| 2026-05-05 14:23 | 21.91169 | 113.25752 | 8921 ft | 307 kts | 76° |
| 2026-05-05 14:23 | 21.91581 | 113.27980 | 8916 ft | 308 kts | 86° |
| 2026-05-05 14:23 | 21.91495 | 113.30273 | 8862 ft | 307 kts | 101° |
| 2026-05-05 14:24 | 21.90880 | 113.32466 | 8455 ft | 304 kts | 116° |
| 2026-05-05 14:24 | 21.90089 | 113.34558 | 8138 ft | 300 kts | 115° |
| 2026-05-05 14:24 | 21.89319 | 113.36640 | 7794 ft | 297 kts | 113° |
| 2026-05-05 14:24 | 21.88570 | 113.38695 | 7408 ft | 293 kts | 113° |
| 2026-05-05 14:25 | 21.87834 | 113.40718 | 6929 ft | 287 kts | 113° |
| 2026-05-05 14:25 | 21.87111 | 113.42702 | 6419 ft | 282 kts | 114° |
| 2026-05-05 14:25 | 21.86437 | 113.44649 | 5954 ft | 283 kts | 108° |
| 2026-05-05 14:25 | 21.86115 | 113.46726 | 5733 ft | 279 kts | 98° |
| 2026-05-05 14:26 | 21.85883 | 113.48794 | 5553 ft | 278 kts | 98° |
| 2026-05-05 14:26 | 21.85641 | 113.50855 | 5374 ft | 276 kts | 100° |
| 2026-05-05 14:26 | 21.85396 | 113.52901 | 5189 ft | 275 kts | 101° |
| 2026-05-05 14:26 | 21.85153 | 113.54938 | 5011 ft | 274 kts | 99° |
| 2026-05-05 14:27 | 21.84912 | 113.56965 | 4825 ft | 272 kts | 98° |
| 2026-05-05 14:27 | 21.84690 | 113.58984 | 4636 ft | 272 kts | 97° |
| 2026-05-05 14:27 | 21.84833 | 113.61009 | 4451 ft | 273 kts | 79° |
| 2026-05-05 14:27 | 21.85414 | 113.62918 | 4248 ft | 272 kts | 72° |
| 2026-05-05 14:28 | 21.86057 | 113.64829 | 4059 ft | 270 kts | 74° |
| 2026-05-05 14:28 | 21.86797 | 113.66672 | 3858 ft | 271 kts | 59° |
| 2026-05-05 14:28 | 21.88217 | 113.67989 | 3686 ft | 272 kts | 26° |
| 2026-05-05 14:28 | 21.90041 | 113.68324 | 3559 ft | 264 kts | 354° |
| 2026-05-05 14:29 | 21.91728 | 113.67687 | 3441 ft | 253 kts | 331° |
| 2026-05-05 14:29 | 21.93322 | 113.66923 | 3330 ft | 248 kts | 340° |
| 2026-05-05 14:29 | 21.94913 | 113.66364 | 3219 ft | 234 kts | 344° |
| 2026-05-05 14:29 | 21.96443 | 113.65879 | 3091 ft | 225 kts | 345° |
| 2026-05-05 14:30 | 21.97933 | 113.65383 | 3000 ft | 223 kts | 343° |
| 2026-05-05 14:30 | 21.99324 | 113.64881 | 2914 ft | 206 kts | 343° |
| 2026-05-05 14:30 | 22.00651 | 113.64395 | 2674 ft | 198 kts | 343° |
| 2026-05-05 14:30 | 22.01927 | 113.63925 | 2425 ft | 190 kts | 344° |
| 2026-05-05 14:31 | 22.03154 | 113.63475 | 2182 ft | 183 kts | 345° |
| 2026-05-05 14:31 | 22.04340 | 113.63039 | 1945 ft | 177 kts | 345° |
| 2026-05-05 14:31 | 22.05481 | 113.62619 | 1733 ft | 169 kts | 346° |
| 2026-05-05 14:31 | 22.06571 | 113.62218 | 1489 ft | 164 kts | 346° |
| 2026-05-05 14:32 | 22.07599 | 113.61840 | 1298 ft | 154 kts | 346° |
| 2026-05-05 14:32 | 22.08593 | 113.61475 | 1089 ft | 149 kts | 346° |
| 2026-05-05 14:32 | 22.09570 | 113.61116 | 900 ft | 147 kts | 346° |
| 2026-05-05 14:32 | 22.10545 | 113.60758 | 729 ft | 148 kts | 346° |
| 2026-05-05 14:33 | 22.11521 | 113.60399 | 559 ft | 148 kts | 346° |
| 2026-05-05 14:33 | 22.12497 | 113.60037 | 369 ft | 149 kts | 345° |
| 2026-05-05 14:33 | 22.13479 | 113.59680 | 157 ft | 149 kts | 345° |
| 2026-05-05 14:33 | 22.14443 | 113.59330 | 29 ft | 137 kts | 343° |
| 2026-05-05 14:34 | 22.15204 | 113.59054 | 29 ft | 91 kts | 340° |
| 2026-05-05 14:34 | 22.15637 | 113.58891 | 27 ft | 46 kts | 341° |
| 2026-05-05 14:34 | 22.15924 | 113.58784 | 29 ft | 39 kts | 341° |
| 2026-05-05 14:34 | 22.16118 | 113.58712 | 29 ft | 25 kts | 339° |
| 2026-05-05 14:35 | 22.16200 | 113.58636 | 29 ft | 13 kts | 285° |
| 2026-05-05 14:35 | 22.16219 | 113.58532 | 29 ft | 15 kts | 282° |
| 2026-05-05 14:35 | 22.16242 | 113.58415 | 29 ft | 17 kts | 283° |
| 2026-05-05 14:35 | 22.16258 | 113.58318 | 29 ft | 11 kts | 272° |
| 2026-05-05 14:36 | 22.16238 | 113.58234 | 29 ft | 12 kts | 251° |
| 2026-05-05 14:36 | 22.16208 | 113.58140 | 29 ft | 14 kts | 251° |
| 2026-05-05 14:36 | 22.16173 | 113.58033 | 29 ft | 16 kts | 251° |
| 2026-05-05 14:36 | 22.16140 | 113.57929 | 29 ft | 11 kts | 251° |
| 2026-05-05 14:37 | 22.16112 | 113.57843 | 29 ft | 13 kts | 249° |
| 2026-05-05 14:37 | 22.16070 | 113.57764 | 29 ft | 9 kts | 218° |
| 2026-05-05 14:37 | 22.16002 | 113.57740 | 29 ft | 11 kts | 195° |
| 2026-05-05 14:37 | 22.15920 | 113.57717 | 29 ft | 13 kts | 194° |
| 2026-05-05 14:38 | 22.15828 | 113.57691 | 29 ft | 13 kts | 195° |
| 2026-05-05 14:38 | 22.15737 | 113.57659 | 29 ft | 13 kts | 206° |
| 2026-05-05 14:38 | 22.15662 | 113.57609 | 29 ft | 9 kts | 217° |
| 2026-05-05 14:38 | 22.15613 | 113.57559 | 29 ft | 10 kts | 227° |
| 2026-05-05 14:39 | 22.15596 | 113.57522 | 29 ft | 4 kts | 283° |
| 2026-05-05 14:39 | 22.15621 | 113.57496 | 29 ft | 6 kts | 324° |
| 2026-05-05 14:39 | 22.15638 | 113.57483 | 29 ft | 3 kts | 326° |
| 2026-05-05 14:39 | 22.15646 | 113.57478 | 29 ft | 0 kts | 326° |